Flight Track Log - Related Links

Times and Time Zones

All times are in EST time to prevent confusion due to time zone crossing. See the SWA7 flight status page for this flight to view local times or setup timezone preferences in your user account.

Time Position Orientation Groundspeed Altitude Reporting Facility
EST Latitude Longitude Course Direction KTS MPH feet Rate Location/Type
Wed 09:41:47 AM 32.8500 -96.8667 320° Northwest 130 150 1,400  Level Dallas / Fort Worth TRACON
Wed 09:42:53 AM 32.8833 -96.9000 320° Northwest 179 206 4,000 2,571 Climbing Dallas / Fort Worth TRACON
Wed 09:43:53 AM 32.8833 -96.9667 270° West 226 260 6,800 2,851 Climbing Dallas / Fort Worth TRACON
Wed 09:46:15 AM 32.7106 -96.9783 183° South 318 366 13,600 3,118 Climbing Fort Worth Center
Wed 09:47:17 AM 32.6058 -96.9683 175° South 343 395 17,400 3,097 Climbing Fort Worth Center
Wed 09:48:19 AM 32.5044 -96.9592 176° South 362 417 20,000 2,661 Climbing Fort Worth Center
Wed 09:49:21 AM 32.3958 -96.9481 175° South 380 437 22,900 2,613 Climbing Fort Worth Center
Wed 09:50:23 AM 32.2942 -96.9397 176° South 386 444 25,400 2,293 Climbing Fort Worth Center
Wed 09:51:24 AM 32.1803 -96.9194 171° South 406 467 27,600 2,293 Climbing Fort Worth Center
Wed 09:52:26 AM 32.0692 -96.8994 171° South 410 472 30,100 2,323 Climbing Fort Worth Center
Wed 09:53:28 AM 31.9522 -96.8808 172° South 408 470 32,400 1,582 Climbing Fort Worth Center
Wed 09:54:16 AM 31.8569 -96.8631 171° South 405 466 33,000 327 Climbing Houston Center
Wed 09:55:18 AM 31.7458 -96.8444 172° South 400 460 33,000  Level Houston Center
Wed 09:56:20 AM 31.6347 -96.8261 172° South 397 457 33,000  Level Houston Center
Wed 09:57:22 AM 31.5050 -96.8053 172° South 397 457 33,000 -339 Level Houston Center
Wed 09:58:24 AM 31.3942 -96.7867 172° South 397 457 32,300 -774 Descending Houston Center
Wed 09:59:26 AM 31.2819 -96.7697 173° South 400 460 31,400 -968 Descending Houston Center
Wed 10:00:28 AM 31.1703 -96.7519 172° South 400 460 30,300 -1,016 Descending Houston Center
Wed 10:01:30 AM 31.0611 -96.7347 172° South 392 451 29,300 -1,210 Descending Houston Center
Wed 10:02:32 AM 30.9544 -96.7178 172° South 383 441 27,800 -1,680 Descending Houston Center
Wed 10:03:35 AM 30.8503 -96.7019 173° South 374 430 25,800 -1,872 Descending Houston Center
Wed 10:04:37 AM 30.7489 -96.6856 172° South 365 420 23,900 -1,839 Descending Houston Center
Wed 10:05:39 AM 30.6508 -96.6706 173° South 354 407 22,000 -2,032 Descending Houston Center
Wed 10:06:41 AM 30.5464 -96.6156 156° South 369 425 19,700 -1,984 Descending Houston Center
Wed 10:07:43 AM 30.4725 -96.5261 134° Southeast 379 436 17,900 -1,762 Descending Houston Center
Wed 10:08:47 AM 30.3947 -96.4336 134° Southeast 376 433 16,000 -1,778 Descending Houston Center
Wed 10:09:31 AM 30.3408 -96.3669 133° Southeast 366 421 14,700 -1,800 Descending Houston Center
Wed 10:09:47 AM 30.3289 -96.3519 133° Southeast 368 423 14,200 -1,701 Descending Houston Center
Wed 10:10:38 AM 30.2689 -96.2833 135° Southeast 338 389 12,800 -1,714 Descending Houston Center
Wed 10:10:50 AM 30.2622 -96.2747 132° Southeast 340 391 12,400 -1,855 Descending Houston Center
Wed 10:11:33 AM 30.2083 -96.2128 135° Southeast 335 386 11,100 -1,355 Descending Houston Center
Wed 10:11:52 AM 30.1953 -96.1994 139° Southeast 333 383 11,000 -90 Descending Houston Center
Wed 10:12:40 AM 30.1178 -96.1600 156° South 308 354 11,000  Level Houston Center
Wed 10:12:54 AM 30.1056 -96.1525 152° Southeast 315 362 11,000  Level Houston Center
Wed 10:13:36 AM 30.0544 -96.1044 141° Southeast 327 376 11,000  Level Houston Center
Wed 10:13:56 AM 30.0383 -96.0850 134° Southeast 326 375 11,000  Level Houston Center
Wed 10:14:37 AM 29.9872 -96.0325 138° Southeast 321 369 11,000  Level Houston Center
Wed 10:14:58 AM 29.9686 -96.0106 134° Southeast 321 369 11,000  Level Houston Center
Wed 10:15:38 AM 29.9222 -95.9606 137° Southeast 323 372 11,000 -97 Level Houston Center
Wed 10:16:00 AM 29.9025 -95.9400 138° Southeast 323 372 10,900 -896 Descending Houston Center
Wed 10:16:45 AM 29.8486 -95.8847 138° Southeast 308 354 10,000 -968 Descending Houston Center
Wed 10:17:02 AM 29.8400 -95.8725 129° Southeast 313 360 9,900 -984 Descending Houston Center
Wed 10:17:46 AM 29.7881 -95.8169 137° Southeast 304 350 9,000 -1,048 Descending Houston Center
Wed 10:18:05 AM 29.7786 -95.8072 138° Southeast 304 350 8,800 -968 Descending Houston Center
Wed 10:18:48 AM 29.7278 -95.7519 137° Southeast 291 335 8,000 -871 Descending Houston Center
Wed 10:19:07 AM 29.7194 -95.7433 138° Southeast 295 339 7,900 -984 Descending Houston Center
Wed 10:19:49 AM 29.6697 -95.6914 138° Southeast 260 299 7,000 -1,161 Descending Houston Center
Wed 10:20:09 AM 29.6567 -95.6761 135° Southeast 262 302 6,700 -774 Descending Houston Center
Wed 10:20:51 AM 29.6211 -95.6392 138° Southeast 226 260 6,200 -677 Descending Houston Center
Wed 10:21:11 AM 29.6086 -95.6253 136° Southeast 243 280 6,000 -218 Descending Houston Center
Wed 10:21:46 AM 29.5792 -95.5939 137° Southeast 223 257 6,000 -97 Level Houston Center
Wed 10:22:13 AM 29.5633 -95.5794 142° Southeast 226 260 5,900 -590 Descending Houston Center
Wed 10:22:47 AM 29.5256 -95.5592 155° Southeast 217 250 5,400 -677 Descending Houston Center
Wed 10:23:15 AM 29.5100 -95.5467 145° Southeast 220 253 5,200 -677 Descending Houston Center
Wed 10:23:49 AM 29.4764 -95.5242 150° Southeast 209 241 4,700 -677 Descending Houston Center
Wed 10:24:17 AM 29.4736 -95.5044 99° East 216 249 4,500 -787 Descending Houston Center
Wed 10:24:50 AM 29.4833 -95.4633 75° East 180 207 3,900 -968 Descending Houston Center
Wed 10:25:19 AM 29.4947 -95.4433 57° Northeast 178 205 3,500 -787 Descending Houston Center
Wed 10:25:51 AM 29.5133 -95.4239 42° Northeast 164 189 3,100 -667 Descending Houston Center
Wed 10:26:22 AM 29.5286 -95.4069 44° Northeast 168 193 2,800 -590 Descending Houston Center
Wed 10:26:52 AM 29.5439 -95.3892 45° Northeast 150 173 2,500 -484 Descending Houston Center
Wed 10:27:24 AM 29.5586 -95.3742 42° Northeast 159 183 2,300 -677 Descending Houston Center
Wed 10:27:54 AM 29.5744 -95.3567 44° Northeast 142 163 1,800 -677 Descending Houston Center
Wed 10:28:26 AM 29.5858 -95.3433 46° Northeast 148 170 1,600 -689 Descending Houston Center
Wed 10:28:55 AM 29.6011 -95.3269 43° Northeast 121 139 1,100 -677 Descending Houston Center
Wed 10:29:28 AM 29.6097 -95.3169 45° Northeast 132 152 900 -590 Descending Houston Center
Wed 10:29:56 AM 29.6242 -95.3025 41° Northeast 117 135 500 -677 Descending Houston Center
Wed 10:30:30 AM 29.6336 -95.2925 43° Northeast 121 139 200 -529 Descending Houston Center
Wed 10:32:00 AM 29.6333 -95.2667 90° East  Level FlightAware Approximate

Login

Don't have an account? Register now (free) for customized features, flight alerts, and more!